Time;durP1;ratioP1;P1;durP2;ratioP2;P2;SDS_P1;SDS_P2;PMS_P1;PMS_P2;Temp;Humidity;BMP_temperature;BMP_pressure;BME280_temperature;BME280_humidity;BME280_pressure;Samples;Min_cycle;Max_cycle;Signal;HPM_P1;HPM_P2
2022/01/31 00:01:06;;;;;;;8.77;6.80;;;7.70;55.70;;;;;;4974804;28;20133;-86
2022/01/31 00:03:34;;;;;;;8.05;6.20;;;7.70;55.80;;;;;;4975283;28;20041;-85
2022/01/31 00:06:01;;;;;;;8.27;6.05;;;7.70;55.80;;;;;;4969508;28;20041;-85
2022/01/31 00:08:27;;;;;;;8.23;5.85;;;7.70;55.80;;;;;;4966860;28;20042;-86
2022/01/31 00:10:53;;;;;;;9.05;6.45;;;7.70;55.80;;;;;;4955426;28;20035;-86
2022/01/31 00:13:44;;;;;;;8.35;6.38;;;7.70;55.80;;;;;;4959601;28;20050;-85
2022/01/31 00:16:08;;;;;;;7.93;6.20;;;7.70;55.80;;;;;;4942416;28;20417;-86
2022/01/31 00:18:34;;;;;;;10.20;6.55;;;7.70;55.70;;;;;;4969068;28;20524;-85
2022/01/31 00:21:00;;;;;;;7.88;6.28;;;7.70;55.80;;;;;;4958852;28;20070;-84
2022/01/31 00:23:27;;;;;;;8.68;6.55;;;7.60;55.60;;;;;;4960008;28;20054;-85
2022/01/31 00:25:53;;;;;;;9.30;6.32;;;7.70;55.70;;;;;;4969677;28;20190;-84
2022/01/31 00:28:19;;;;;;;8.75;6.45;;;7.60;55.60;;;;;;4959697;28;20042;-86
2022/01/31 00:30:47;;;;;;;8.23;6.90;;;7.60;55.70;;;;;;4972929;28;20030;-84
2022/01/31 00:33:13;;;;;;;7.97;6.13;;;7.60;55.70;;;;;;4966789;28;20038;-80
2022/01/31 00:35:39;;;;;;;9.80;6.63;;;7.60;55.70;;;;;;4965744;28;20531;-80
2022/01/31 00:38:08;;;;;;;7.78;6.28;;;7.60;55.80;;;;;;4975939;28;20045;-84
2022/01/31 00:40:41;;;;;;;8.82;7.32;;;7.60;55.70;;;;;;4959867;28;20045;-85
2022/01/31 00:43:12;;;;;;;9.25;6.53;;;7.60;55.70;;;;;;4957405;28;20093;-84
2022/01/31 00:45:45;;;;;;;9.73;6.50;;;7.60;55.90;;;;;;4990272;28;20137;-86
2022/01/31 00:48:17;;;;;;;8.88;6.43;;;7.60;56.30;;;;;;4941363;28;20636;-84
2022/01/31 00:50:47;;;;;;;9.00;6.88;;;7.60;56.70;;;;;;4926277;28;20037;-84
2022/01/31 00:53:14;;;;;;;7.65;5.82;;;7.60;57.00;;;;;;4943994;28;20410;-83
2022/01/31 00:55:40;;;;;;;8.18;6.40;;;7.60;57.30;;;;;;4952008;28;20034;-85
2022/01/31 00:58:06;;;;;;;8.50;6.47;;;7.60;57.40;;;;;;4959099;28;20035;-87
2022/01/31 01:00:32;;;;;;;8.70;6.55;;;7.60;57.40;;;;;;4962755;28;20054;-85
2022/01/31 01:02:58;;;;;;;9.77;6.85;;;7.60;57.50;;;;;;4976696;28;20041;-86
2022/01/31 01:05:24;;;;;;;9.30;6.25;;;7.60;57.60;;;;;;4941473;28;20035;-86
2022/01/31 01:07:51;;;;;;;10.48;7.38;;;7.60;57.60;;;;;;4955817;28;20133;-85
2022/01/31 01:10:18;;;;;;;9.65;7.18;;;7.60;57.60;;;;;;4950846;28;20600;-85
2022/01/31 01:12:45;;;;;;;9.32;6.95;;;7.60;57.70;;;;;;4956554;28;20528;-84
2022/01/31 01:15:12;;;;;;;10.32;6.65;;;7.60;57.80;;;;;;4966532;28;20045;-84
2022/01/31 01:17:38;;;;;;;10.95;7.15;;;7.60;57.90;;;;;;4958157;28;20042;-83
2022/01/31 01:20:05;;;;;;;8.65;6.65;;;7.60;58.00;;;;;;4975362;28;20049;-84
2022/01/31 01:22:32;;;;;;;8.82;6.80;;;7.60;58.00;;;;;;4972912;28;20530;-84
2022/01/31 01:24:59;;;;;;;10.13;6.93;;;7.60;58.00;;;;;;4955661;28;20528;-84
2022/01/31 01:27:25;;;;;;;9.60;7.18;;;7.70;58.10;;;;;;4941542;28;20039;-84
2022/01/31 01:29:52;;;;;;;8.82;6.72;;;7.60;58.10;;;;;;4973621;28;20042;-84
2022/01/31 01:32:21;;;;;;;11.07;7.60;;;7.60;58.20;;;;;;4957669;28;20117;-85
2022/01/31 01:34:47;;;;;;;10.10;7.25;;;7.70;58.30;;;;;;4950081;28;20065;-85
2022/01/31 01:37:14;;;;;;;10.05;7.30;;;7.60;58.30;;;;;;4954472;28;20563;-84
2022/01/31 01:39:42;;;;;;;10.02;7.03;;;7.60;58.40;;;;;;4956707;28;20045;-84
2022/01/31 01:42:09;;;;;;;11.40;7.90;;;7.70;58.50;;;;;;4950343;28;20046;-84
2022/01/31 01:44:43;;;;;;;11.52;7.53;;;7.70;58.60;;;;;;4954607;28;20418;-84
2022/01/31 01:47:10;;;;;;;10.95;8.00;;;7.60;58.70;;;;;;4971569;28;20161;-83
2022/01/31 01:49:36;;;;;;;11.02;8.48;;;7.70;58.70;;;;;;4941617;28;20066;-83
2022/01/31 01:52:02;;;;;;;10.57;7.13;;;7.70;58.70;;;;;;4949069;28;20749;-84
2022/01/31 01:54:29;;;;;;;10.82;8.05;;;7.70;58.70;;;;;;4957455;28;20073;-84
2022/01/31 01:56:55;;;;;;;9.55;7.07;;;7.70;58.80;;;;;;4945590;28;20442;-84
2022/01/31 01:59:22;;;;;;;13.25;8.98;;;7.70;58.70;;;;;;4956103;28;20146;-85
2022/01/31 02:02:10;;;;;;;11.60;8.20;;;7.60;58.70;;;;;;4959452;28;20049;-85
2022/01/31 02:04:36;;;;;;;12.25;8.18;;;7.70;58.70;;;;;;4971574;28;20514;-85
2022/01/31 02:07:12;;;;;;;11.13;7.82;;;7.70;58.60;;;;;;4955709;28;20045;-86
2022/01/31 02:09:45;;;;;;;13.02;7.72;;;7.70;58.60;;;;;;4971706;28;20073;-86
2022/01/31 02:12:12;;;;;;;11.77;8.57;;;7.70;58.60;;;;;;4931135;28;20054;-85
2022/01/31 02:14:38;;;;;;;10.73;7.68;;;7.70;58.60;;;;;;4953397;28;20043;-85
2022/01/31 02:17:37;;;;;;;13.23;8.73;;;7.70;58.60;;;;;;4971452;28;20457;-86
2022/01/31 02:20:12;;;;;;;11.38;8.80;;;7.70;58.70;;;;;;4958122;28;20464;-86
2022/01/31 02:22:38;;;;;;;10.60;7.55;;;7.60;58.70;;;;;;4972766;28;20137;-83
2022/01/31 02:25:21;;;;;;;12.90;8.13;;;7.60;58.60;;;;;;4956231;28;20058;-84
2022/01/31 02:27:52;;;;;;;11.32;7.70;;;7.70;58.60;;;;;;4966781;28;20041;-86
2022/01/31 02:30:18;;;;;;;11.43;7.45;;;7.60;58.60;;;;;;4958111;28;20041;-84
2022/01/31 02:32:46;;;;;;;11.98;8.20;;;7.70;58.60;;;;;;4973197;28;20034;-84
2022/01/31 02:35:12;;;;;;;12.13;7.90;;;7.60;58.60;;;;;;4971846;28;20122;-84
2022/01/31 02:37:39;;;;;;;11.02;7.80;;;7.60;58.60;;;;;;4953903;28;20644;-85
2022/01/31 02:40:37;;;;;;;12.70;7.88;;;7.60;58.50;;;;;;4951895;28;20031;-85
2022/01/31 02:43:04;;;;;;;10.85;7.95;;;7.60;58.40;;;;;;4965205;28;20097;-86
2022/01/31 02:45:31;;;;;;;12.15;8.43;;;7.60;58.60;;;;;;4953494;28;20046;-85
2022/01/31 02:48:00;;;;;;;12.00;8.55;;;7.60;58.60;;;;;;4950500;28;20042;-86
2022/01/31 02:50:31;;;;;;;9.10;7.45;;;7.60;58.70;;;;;;4941326;28;20031;-86
2022/01/31 02:53:10;;;;;;;12.57;8.15;;;7.60;58.90;;;;;;4957104;28;20117;-85
2022/01/31 02:55:39;;;;;;;10.85;8.05;;;7.60;58.90;;;;;;4956337;28;20034;-83
2022/01/31 02:58:05;;;;;;;12.00;7.85;;;7.60;58.90;;;;;;4958877;28;20039;-81
2022/01/31 03:00:31;;;;;;;11.63;8.50;;;7.60;59.00;;;;;;4956767;28;20122;-81
2022/01/31 03:03:07;;;;;;;10.63;7.38;;;7.60;59.00;;;;;;4952753;28;20089;-82
2022/01/31 03:05:34;;;;;;;11.45;7.97;;;7.70;59.00;;;;;;4959053;28;20521;-83
2022/01/31 03:08:01;;;;;;;12.90;8.05;;;7.70;59.10;;;;;;4955551;28;20031;-83
2022/01/31 03:10:27;;;;;;;13.68;9.02;;;7.60;59.10;;;;;;4959443;28;20126;-83
2022/01/31 03:12:53;;;;;;;13.45;8.63;;;7.60;59.00;;;;;;4960590;28;20130;-84
2022/01/31 03:15:20;;;;;;;11.57;8.45;;;7.60;58.90;;;;;;4958654;28;20441;-84
2022/01/31 03:18:05;;;;;;;12.07;8.65;;;7.60;58.90;;;;;;4960198;28;20067;-83
2022/01/31 03:20:31;;;;;;;14.35;9.13;;;7.60;58.90;;;;;;4963816;28;20505;-82
2022/01/31 03:22:58;;;;;;;11.50;8.63;;;7.60;58.90;;;;;;4992239;28;20565;-82
2022/01/31 03:25:24;;;;;;;12.38;8.82;;;7.60;58.80;;;;;;4975175;28;20042;-82
2022/01/31 03:27:50;;;;;;;12.15;8.57;;;7.60;58.80;;;;;;4966071;28;20049;-83
2022/01/31 03:30:20;;;;;;;12.65;8.30;;;7.70;58.90;;;;;;4950604;28;20495;-83
2022/01/31 03:32:48;;;;;;;13.55;9.25;;;7.60;58.80;;;;;;4976328;28;20394;-82
2022/01/31 03:35:14;;;;;;;11.07;8.85;;;7.60;59.00;;;;;;4957946;28;20053;-80
2022/01/31 03:37:41;;;;;;;12.35;9.30;;;7.70;59.10;;;;;;4968093;28;20039;-81
2022/01/31 03:40:09;;;;;;;13.80;8.57;;;7.60;59.20;;;;;;4927134;28;20038;-80
2022/01/31 03:42:36;;;;;;;15.32;9.15;;;7.70;59.30;;;;;;4958596;28;20034;-80
2022/01/31 03:45:05;;;;;;;12.80;9.13;;;7.60;59.20;;;;;;4973221;28;20038;-80
2022/01/31 03:47:32;;;;;;;12.77;8.68;;;7.60;59.20;;;;;;4958435;28;20042;-81
2022/01/31 03:49:58;;;;;;;12.20;8.95;;;7.60;59.20;;;;;;4973146;28;20038;-81
2022/01/31 03:52:26;;;;;;;14.68;9.13;;;7.70;59.30;;;;;;4974296;28;20069;-81
2022/01/31 03:54:55;;;;;;;12.05;8.32;;;7.60;59.30;;;;;;4972641;28;20097;-82
2022/01/31 03:57:22;;;;;;;14.50;8.65;;;7.60;59.30;;;;;;4954445;28;20458;-82
2022/01/31 04:00:10;;;;;;;12.57;8.30;;;7.70;59.40;;;;;;4966718;28;20039;-82
2022/01/31 04:02:42;;;;;;;;;;;7.60;59.30;;;;;;4966185;28;20576;-82
2022/01/31 04:05:09;;;;;;;14.70;8.77;;;7.60;59.20;;;;;;4973417;28;19922;-80
2022/01/31 04:07:35;;;;;;;11.80;7.75;;;7.70;59.30;;;;;;4986597;28;20034;-80
2022/01/31 04:10:03;;;;;;;13.63;9.05;;;7.60;59.20;;;;;;4965491;28;20545;-78
2022/01/31 04:12:29;;;;;;;11.80;9.05;;;7.60;59.20;;;;;;4955499;28;20030;-80
2022/01/31 04:14:54;;;;;;;11.68;8.05;;;7.70;59.20;;;;;;4953780;28;20093;-82
2022/01/31 04:17:21;;;;;;;11.90;8.63;;;7.60;59.20;;;;;;4965450;28;20037;-82
2022/01/31 04:19:48;;;;;;;12.90;8.18;;;7.60;59.20;;;;;;4967116;28;20096;-81
2022/01/31 04:22:18;;;;;;;12.20;8.35;;;7.60;59.20;;;;;;4944318;28;20035;-80
2022/01/31 04:24:47;;;;;;;12.07;8.73;;;7.60;59.20;;;;;;4965061;28;20483;-82
2022/01/31 04:27:17;;;;;;;11.70;8.35;;;7.60;59.00;;;;;;4963753;28;20034;-80
2022/01/31 04:29:45;;;;;;;12.98;8.98;;;7.60;59.10;;;;;;4972343;28;20042;-83
2022/01/31 04:32:11;;;;;;;12.10;8.57;;;7.60;59.00;;;;;;4967189;28;20045;-80
2022/01/31 04:34:37;;;;;;;10.40;8.15;;;7.60;59.10;;;;;;4968435;28;20031;-79
2022/01/31 04:37:03;;;;;;;11.32;8.30;;;7.60;59.00;;;;;;4958230;28;20466;-82
2022/01/31 04:39:31;;;;;;;13.65;7.82;;;7.60;59.00;;;;;;4967587;28;20044;-81
2022/01/31 04:41:57;;;;;;;12.20;8.32;;;7.60;59.00;;;;;;4989051;28;20421;-80
2022/01/31 04:44:24;;;;;;;12.20;8.73;;;7.60;59.00;;;;;;4967225;28;20038;-79
2022/01/31 04:46:51;;;;;;;12.93;8.52;;;7.60;59.10;;;;;;4966750;28;20106;-79
2022/01/31 04:49:21;;;;;;;14.27;8.57;;;7.60;59.10;;;;;;4968408;28;20035;-83
2022/01/31 04:51:47;;;;;;;11.80;8.23;;;7.60;59.20;;;;;;4968227;28;20034;-80
2022/01/31 04:54:14;;;;;;;12.32;8.73;;;7.60;59.10;;;;;;4955701;28;20378;-81
2022/01/31 04:56:42;;;;;;;10.95;7.88;;;7.60;59.20;;;;;;4968735;28;20121;-83
2022/01/31 04:59:09;;;;;;;12.90;8.38;;;7.60;59.10;;;;;;4967100;28;20055;-83
2022/01/31 05:01:35;;;;;;;10.50;7.60;;;7.60;59.20;;;;;;4957654;28;20094;-82
2022/01/31 05:04:01;;;;;;;11.02;7.85;;;7.60;59.20;;;;;;4968317;28;20031;-82
2022/01/31 05:06:33;;;;;;;14.45;8.38;;;7.60;59.20;;;;;;4965496;28;20478;-83
2022/01/31 05:08:59;;;;;;;11.55;8.00;;;7.60;59.20;;;;;;4966665;28;20038;-83
2022/01/31 05:11:25;;;;;;;10.93;7.57;;;7.60;59.20;;;;;;4967814;28;20493;-84
2022/01/31 05:13:51;;;;;;;12.80;8.68;;;7.60;59.20;;;;;;4966704;28;20064;-81
2022/01/31 05:16:17;;;;;;;12.60;8.73;;;7.60;59.20;;;;;;4968280;28;20035;-80
2022/01/31 05:18:44;;;;;;;11.18;7.97;;;7.60;59.20;;;;;;4969620;28;20058;-81
2022/01/31 05:21:10;;;;;;;13.45;8.48;;;7.60;59.20;;;;;;4969449;28;20505;-84
2022/01/31 05:23:37;;;;;;;12.75;8.50;;;7.60;59.60;;;;;;4968697;28;20061;-85
2022/01/31 05:26:03;;;;;;;12.63;8.23;;;7.70;60.20;;;;;;4991446;28;20066;-84
2022/01/31 05:28:29;;;;;;;12.38;8.70;;;7.70;60.10;;;;;;4967744;28;20030;-84
2022/01/31 05:30:55;;;;;;;11.50;8.63;;;7.60;60.00;;;;;;4967245;28;20398;-81
2022/01/31 05:33:21;;;;;;;12.57;8.10;;;7.60;60.00;;;;;;4967698;28;20031;-82
2022/01/31 05:35:47;;;;;;;13.38;8.55;;;7.60;60.00;;;;;;4967019;28;20138;-86
2022/01/31 05:38:13;;;;;;;13.18;8.80;;;7.60;60.10;;;;;;4965521;28;20038;-84
2022/01/31 05:40:39;;;;;;;12.63;9.27;;;7.60;60.10;;;;;;4966116;28;20069;-82
2022/01/31 05:43:05;;;;;;;14.20;8.60;;;7.60;60.00;;;;;;4974097;28;20035;-84
2022/01/31 05:45:31;;;;;;;13.43;8.95;;;7.60;60.00;;;;;;4956640;28;20041;-79
2022/01/31 05:47:57;;;;;;;13.18;8.65;;;7.60;60.00;;;;;;4966153;28;20030;-83
2022/01/31 05:50:23;;;;;;;13.63;8.90;;;7.60;60.10;;;;;;4965644;28;20126;-82
2022/01/31 05:52:49;;;;;;;14.27;9.00;;;7.60;60.10;;;;;;4965766;28;20121;-83
2022/01/31 05:55:15;;;;;;;17.20;9.85;;;7.60;60.20;;;;;;4964604;28;20035;-82
2022/01/31 05:57:42;;;;;;;11.48;8.40;;;7.60;60.20;;;;;;4955741;28;20046;-82
2022/01/31 06:00:08;;;;;;;12.93;9.18;;;7.60;60.20;;;;;;4963624;28;20132;-81
2022/01/31 06:02:35;;;;;;;14.50;8.93;;;7.60;60.30;;;;;;4955805;28;20050;-81
2022/01/31 06:05:03;;;;;;;18.15;9.70;;;7.60;60.30;;;;;;4972999;28;20043;-82
2022/01/31 06:07:29;;;;;;;14.18;9.02;;;7.60;60.40;;;;;;4965365;28;20035;-83
2022/01/31 06:09:55;;;;;;;12.18;8.32;;;7.60;60.40;;;;;;4952135;28;20029;-82
2022/01/31 06:12:22;;;;;;;14.57;9.73;;;7.60;60.30;;;;;;4972157;28;20090;-82
2022/01/31 06:14:47;;;;;;;13.70;9.40;;;7.60;60.20;;;;;;4965916;28;20138;-83
2022/01/31 06:17:13;;;;;;;13.77;9.93;;;7.60;60.30;;;;;;4966291;28;20568;-80
2022/01/31 06:19:39;;;;;;;13.38;9.30;;;7.60;60.20;;;;;;4965649;28;20043;-82
2022/01/31 06:22:05;;;;;;;15.43;8.88;;;7.60;60.30;;;;;;4966586;28;20058;-83
2022/01/31 06:24:31;;;;;;;14.65;9.23;;;7.60;60.30;;;;;;4965310;28;20035;-82
2022/01/31 06:27:10;;;;;;;12.07;8.77;;;7.60;60.30;;;;;;4953579;28;20395;-82
2022/01/31 06:29:36;;;;;;;13.50;8.90;;;7.60;60.30;;;;;;4956289;28;20031;-84
2022/01/31 06:32:12;;;;;;;12.48;9.20;;;7.60;60.30;;;;;;4974575;28;20121;-81
2022/01/31 06:34:38;;;;;;;12.15;8.63;;;7.60;60.30;;;;;;4975779;28;20134;-85
2022/01/31 06:37:04;;;;;;;12.00;8.77;;;7.60;60.40;;;;;;4958660;28;20035;-82
2022/01/31 06:39:31;;;;;;;13.57;8.52;;;7.60;60.40;;;;;;4968512;28;20042;-80
2022/01/31 06:41:57;;;;;;;15.50;9.27;;;7.60;60.40;;;;;;4969249;28;20066;-81
2022/01/31 06:44:23;;;;;;;11.55;8.02;;;7.60;60.50;;;;;;4946769;28;20489;-82
2022/01/31 06:46:49;;;;;;;13.73;9.65;;;7.60;60.50;;;;;;4969577;28;20121;-82
2022/01/31 06:49:15;;;;;;;14.55;9.55;;;7.70;60.70;;;;;;4957878;28;20517;-83
2022/01/31 06:51:41;;;;;;;14.45;9.95;;;7.60;60.60;;;;;;4970892;28;20046;-84
2022/01/31 06:54:08;;;;;;;14.80;9.43;;;7.60;60.70;;;;;;4970335;28;20033;-82
2022/01/31 06:56:38;;;;;;;15.63;9.98;;;7.70;60.80;;;;;;4969936;28;20054;-83
2022/01/31 06:59:04;;;;;;;14.88;9.65;;;7.70;60.90;;;;;;4975715;28;20153;-84
2022/01/31 07:01:30;;;;;;;16.10;9.80;;;7.70;60.90;;;;;;4960196;28;20118;-84
2022/01/31 07:03:57;;;;;;;22.10;9.38;;;7.70;61.00;;;;;;4977194;28;20034;-83
2022/01/31 07:06:26;;;;;;;13.70;9.23;;;7.70;60.90;;;;;;4966675;28;20070;-83
2022/01/31 07:08:53;;;;;;;14.75;9.68;;;7.70;60.90;;;;;;4965806;28;20038;-80
2022/01/31 07:11:23;;;;;;;14.38;9.43;;;7.70;61.00;;;;;;4953745;28;20066;-80
2022/01/31 07:14:00;;;;;;;15.93;9.00;;;7.70;61.10;;;;;;4975387;28;20136;-78
2022/01/31 07:16:27;;;;;;;15.05;9.70;;;7.70;61.00;;;;;;4969306;28;20037;-79
2022/01/31 07:18:59;;;;;;;14.48;9.50;;;7.70;60.90;;;;;;4968022;28;20390;-79
2022/01/31 07:21:33;;;;;;;13.23;9.20;;;7.70;60.80;;;;;;4957642;28;20035;-81
2022/01/31 07:24:19;;;;;;;15.60;9.85;;;7.70;60.80;;;;;;4952971;28;20034;-79
2022/01/31 07:26:46;;;;;;;16.63;10.95;;;7.70;60.80;;;;;;4967047;28;20034;-80
2022/01/31 07:29:12;;;;;;;13.13;9.02;;;7.70;60.80;;;;;;4968725;28;20042;-80
2022/01/31 07:31:40;;;;;;;17.77;10.38;;;7.70;60.80;;;;;;4923560;28;20031;-80
2022/01/31 07:34:07;;;;;;;14.88;9.77;;;7.70;60.80;;;;;;4968955;28;20038;-79
2022/01/31 07:36:33;;;;;;;15.80;10.55;;;7.70;60.80;;;;;;4960018;28;20520;-80
2022/01/31 07:39:00;;;;;;;15.50;9.98;;;7.70;60.90;;;;;;4959282;28;20039;-80
2022/01/31 07:41:25;;;;;;;15.35;9.93;;;7.70;60.80;;;;;;4974115;28;20552;-82
2022/01/31 07:43:51;;;;;;;15.38;9.98;;;7.70;60.90;;;;;;4957968;28;20078;-81
2022/01/31 07:46:17;;;;;;;20.88;10.75;;;7.70;61.60;;;;;;4974106;28;20129;-82
2022/01/31 07:48:43;;;;;;;19.45;10.95;;;7.70;60.90;;;;;;4968755;28;20608;-82
2022/01/31 07:51:10;;;;;;;17.40;10.70;;;7.80;61.10;;;;;;4969017;28;20032;-82
2022/01/31 07:53:39;;;;;;;15.68;10.48;;;7.80;61.30;;;;;;4958669;28;20035;-82
2022/01/31 07:56:09;;;;;;;18.23;10.95;;;7.80;61.20;;;;;;4957806;28;20026;-81
2022/01/31 07:58:36;;;;;;;17.65;10.70;;;7.80;61.20;;;;;;4974113;28;20087;-81
2022/01/31 08:01:04;;;;;;;16.85;10.43;;;7.80;61.30;;;;;;4938604;28;20092;-83
2022/01/31 08:03:30;;;;;;;14.77;9.77;;;7.80;61.50;;;;;;4960284;28;20460;-82
2022/01/31 08:05:57;;;;;;;18.35;10.45;;;7.80;61.80;;;;;;4969473;28;20318;-81
2022/01/31 08:08:24;;;;;;;16.95;10.35;;;7.80;61.90;;;;;;4972861;28;20535;-82
2022/01/31 08:10:51;;;;;;;17.13;11.70;;;7.80;61.60;;;;;;4974172;28;20081;-81
2022/01/31 08:13:17;;;;;;;16.58;10.45;;;7.80;61.70;;;;;;4974193;28;20150;-81
2022/01/31 08:15:48;;;;;;;18.08;11.10;;;7.80;61.60;;;;;;4969143;28;20058;-81
2022/01/31 08:18:15;;;;;;;17.15;10.50;;;7.80;61.50;;;;;;4971146;28;20043;-81
2022/01/31 08:20:41;;;;;;;19.67;10.98;;;7.80;61.60;;;;;;4969132;28;20089;-81
2022/01/31 08:23:08;;;;;;;24.48;11.93;;;7.90;61.60;;;;;;4973642;28;20544;-81
2022/01/31 08:25:36;;;;;;;17.23;10.57;;;7.90;61.60;;;;;;4969822;28;20038;-81
2022/01/31 08:28:09;;;;;;;18.75;11.13;;;7.90;61.50;;;;;;4986662;28;20038;-82
2022/01/31 08:31:02;;;;;;;18.60;11.32;;;7.80;61.40;;;;;;4955723;28;20413;-82
2022/01/31 08:33:45;;;;;;;;;;;7.90;61.50;;;;;;4969032;28;20138;-80
2022/01/31 08:36:11;;;;;;;21.27;11.88;;;7.90;61.60;;;;;;4967404;28;20373;-80
2022/01/31 08:38:39;;;;;;;21.45;11.93;;;7.90;61.50;;;;;;4969261;28;20450;-81
2022/01/31 08:41:07;;;;;;;22.13;12.60;;;7.90;61.50;;;;;;4968272;28;20489;-82
2022/01/31 08:43:34;;;;;;;22.52;12.05;;;7.90;61.50;;;;;;4973850;28;20038;-81
2022/01/31 08:46:01;;;;;;;24.25;11.88;;;7.90;61.50;;;;;;4957269;28;20049;-83
2022/01/31 08:48:28;;;;;;;22.20;12.15;;;7.90;61.40;;;;;;4944985;28;20064;-82
2022/01/31 08:50:58;;;;;;;21.60;11.88;;;7.90;61.50;;;;;;4965941;28;20046;-84
2022/01/31 08:53:25;;;;;;;21.00;11.73;;;7.90;61.50;;;;;;4971302;28;20043;-84
2022/01/31 08:56:00;;;;;;;21.70;11.68;;;7.90;61.50;;;;;;4970895;28;20027;-82
2022/01/31 08:58:42;;;;;;;23.48;12.45;;;7.90;61.40;;;;;;4957620;28;20229;-82
2022/01/31 09:01:16;;;;;;;23.80;12.65;;;7.90;61.40;;;;;;4958182;28;20058;-82
2022/01/31 09:04:00;;;;;;;25.00;12.50;;;7.90;61.40;;;;;;4941274;28;20396;-81
2022/01/31 09:06:36;;;;;;;23.40;11.63;;;7.90;61.30;;;;;;4940672;28;20034;-82
2022/01/31 09:09:24;;;;;;;22.35;12.90;;;7.90;61.30;;;;;;4955609;28;20106;-83
2022/01/31 09:11:53;;;;;;;21.40;12.50;;;7.90;61.40;;;;;;4974137;28;20062;-80
2022/01/31 09:14:57;;;;;;;22.80;12.43;;;7.90;61.50;;;;;;4971760;28;20031;-81
2022/01/31 09:17:43;;;;;;;22.55;12.95;;;7.90;61.30;;;;;;4958665;28;20195;-83
2022/01/31 09:21:02;;;;;;;24.23;12.50;;;7.90;61.30;;;;;;4954253;28;20505;-83
2022/01/31 09:24:05;;;;;;;24.52;12.88;;;8.00;61.50;;;;;;4951257;28;20676;-82
2022/01/31 09:26:51;;;;;;;23.17;12.00;;;7.90;61.60;;;;;;4985832;28;20062;-82
2022/01/31 09:29:26;;;;;;;22.80;12.70;;;8.00;61.70;;;;;;4933624;28;20041;-81
2022/01/31 09:32:01;;;;;;;23.63;12.68;;;8.00;61.80;;;;;;4970001;28;20441;-82
2022/01/31 09:35:14;;;;;;;;;;;8.00;61.80;;;;;;4953249;28;20039;-80
2022/01/31 09:38:23;;;;;;;25.35;13.30;;;8.00;61.70;;;;;;4966890;28;20399;-84
2022/01/31 09:41:36;;;;;;;27.17;12.48;;;8.00;61.70;;;;;;4932251;28;20512;-84
2022/01/31 09:51:41;;;;;;;26.80;13.18;;;8.00;61.90;;;;;;4896808;29;20420;-80
2022/01/31 09:54:48;;;;;;;27.13;13.07;;;8.00;61.90;;;;;;4906329;29;20047;-79
2022/01/31 09:57:55;;;;;;;24.30;12.82;;;8.00;62.00;;;;;;4879843;29;20055;-80
2022/01/31 10:00:47;;;;;;;25.67;13.02;;;8.00;61.80;;;;;;4858374;29;20048;-81
2022/01/31 10:04:09;;;;;;;25.25;12.75;;;8.00;61.70;;;;;;4844578;29;20087;-80
2022/01/31 10:18:02;;;;;;;28.40;13.38;;;8.00;61.60;;;;;;4757201;30;20508;-80
2022/01/31 10:21:28;;;;;;;25.50;13.20;;;8.00;61.80;;;;;;4765128;29;20040;-81
2022/01/31 10:24:44;;;;;;;24.83;12.98;;;8.00;61.90;;;;;;4791933;29;20046;-78
2022/01/31 10:27:45;;;;;;;;;;;8.10;62.50;;;;;;4790861;29;20233;-79
2022/01/31 10:30:40;;;;;;;25.10;12.75;;;8.10;62.40;;;;;;4814718;29;20014;-80
2022/01/31 10:33:20;;;;;;;22.83;13.05;;;8.10;62.10;;;;;;4797587;29;20489;-81
2022/01/31 10:35:55;;;;;;;25.38;13.63;;;8.10;61.90;;;;;;4813803;29;20040;-80
2022/01/31 10:38:33;;;;;;;26.30;13.77;;;8.10;62.00;;;;;;4818841;29;20062;-78
2022/01/31 10:44:28;;;;;;;24.38;13.18;;;8.10;62.20;;;;;;4820412;29;20038;-80
2022/01/31 10:52:36;;;;;;;24.90;13.82;;;8.10;62.20;;;;;;4832576;29;20038;-80
2022/01/31 10:55:18;;;;;;;24.42;13.82;;;8.10;62.40;;;;;;4916418;29;20043;-80
2022/01/31 10:58:05;;;;;;;;;;;8.10;62.50;;;;;;4902780;29;20047;-81
2022/01/31 11:00:40;;;;;;;28.20;14.85;;;8.10;62.70;;;;;;4934886;29;19969;-80
2022/01/31 11:03:31;;;;;;;24.48;14.30;;;8.10;62.60;;;;;;4929050;29;20028;-80
2022/01/31 11:06:07;;;;;;;25.88;14.38;;;8.10;62.50;;;;;;4947132;28;20036;-80
2022/01/31 11:08:40;;;;;;;25.67;15.57;;;8.10;62.50;;;;;;4916883;29;20032;-81
2022/01/31 11:11:28;;;;;;;23.90;14.10;;;8.10;62.40;;;;;;4947869;28;20135;-80
2022/01/31 11:14:09;;;;;;;26.08;14.85;;;8.10;62.40;;;;;;4931758;29;20418;-80
2022/01/31 11:16:43;;;;;;;24.05;14.57;;;8.10;62.40;;;;;;4930195;29;20062;-79
2022/01/31 11:19:23;;;;;;;23.85;13.48;;;8.20;62.40;;;;;;4946582;29;20518;-79
2022/01/31 11:22:00;;;;;;;29.20;16.50;;;8.10;62.20;;;;;;4916776;29;20111;-78
2022/01/31 11:24:31;;;;;;;26.42;15.35;;;8.20;62.30;;;;;;4926743;29;20038;-81
2022/01/31 11:27:12;;;;;;;27.85;15.40;;;8.20;62.20;;;;;;4930256;29;20066;-81
2022/01/31 11:29:43;;;;;;;22.75;13.10;;;8.20;62.20;;;;;;4930149;29;20076;-80
2022/01/31 11:32:09;;;;;;;25.92;14.85;;;8.10;62.10;;;;;;4928795;29;20499;-80
2022/01/31 11:34:39;;;;;;;27.50;15.00;;;8.10;62.00;;;;;;4944918;28;20098;-81
2022/01/31 11:37:11;;;;;;;23.30;13.80;;;8.10;62.00;;;;;;4928767;29;20499;-83
2022/01/31 11:39:39;;;;;;;27.90;13.60;;;8.10;62.00;;;;;;4929224;29;20459;-84
2022/01/31 11:42:06;;;;;;;26.85;13.90;;;8.10;61.90;;;;;;4931949;29;20036;-85
2022/01/31 11:44:41;;;;;;;23.05;13.57;;;8.10;62.20;;;;;;4933712;29;20035;-83
2022/01/31 11:47:08;;;;;;;24.63;13.90;;;8.10;62.30;;;;;;4915362;29;20046;-85
2022/01/31 11:49:57;;;;;;;26.80;13.68;;;8.10;62.40;;;;;;4931462;29;20023;-85
2022/01/31 11:52:25;;;;;;;23.45;12.82;;;8.10;62.60;;;;;;4945164;28;20095;-84
2022/01/31 11:55:00;;;;;;;24.65;12.93;;;8.20;62.60;;;;;;4933829;29;20055;-84
2022/01/31 11:57:27;;;;;;;24.55;13.38;;;8.20;62.80;;;;;;4930009;29;20039;-85
2022/01/31 11:59:55;;;;;;;27.35;13.63;;;8.20;62.80;;;;;;4959611;28;20161;-83
2022/01/31 12:02:24;;;;;;;27.50;13.93;;;8.20;62.90;;;;;;4957100;28;20053;-82
2022/01/31 12:04:51;;;;;;;21.60;12.65;;;8.20;62.70;;;;;;4972152;28;20097;-84
2022/01/31 12:07:38;;;;;;;21.05;11.93;;;8.20;62.80;;;;;;4973541;28;20042;-85
2022/01/31 12:10:19;;;;;;;25.65;13.60;;;8.20;62.80;;;;;;4975755;28;20034;-84
2022/01/31 12:23:52;;;;;;;23.52;13.25;;;8.20;62.80;;;;;;4956046;28;20043;-83
2022/01/31 12:26:32;;;;;;;23.40;13.35;;;8.20;62.80;;;;;;4970696;28;20035;-84
2022/01/31 12:29:07;;;;;;;21.58;13.00;;;8.20;62.70;;;;;;4969101;28;20049;-84
2022/01/31 12:31:47;;;;;;;22.70;12.83;;;8.20;62.70;;;;;;4952067;28;20070;-84
2022/01/31 12:34:27;;;;;;;22.58;12.80;;;8.20;62.70;;;;;;4971292;28;20478;-83
2022/01/31 12:36:56;;;;;;;24.65;13.50;;;8.20;62.60;;;;;;4967622;28;20520;-84
2022/01/31 12:39:29;;;;;;;25.88;12.88;;;8.20;62.70;;;;;;4958095;28;20035;-84
2022/01/31 12:42:01;;;;;;;21.10;12.05;;;8.20;62.80;;;;;;4965313;28;20046;-79
2022/01/31 12:44:34;;;;;;;23.80;12.55;;;8.20;62.60;;;;;;4967827;28;22066;-83
2022/01/31 12:47:11;;;;;;;23.08;13.02;;;8.20;62.60;;;;;;4971252;28;20045;-84
2022/01/31 12:49:38;;;;;;;21.88;13.18;;;8.20;62.40;;;;;;4956227;28;20031;-84
2022/01/31 12:52:06;;;;;;;19.50;12.18;;;8.20;62.60;;;;;;4956935;28;20081;-86
2022/01/31 12:54:35;;;;;;;22.45;12.15;;;8.20;62.60;;;;;;4959862;28;20045;-85
2022/01/31 12:57:10;;;;;;;23.63;13.05;;;8.20;62.60;;;;;;4954624;28;20089;-87
2022/01/31 12:59:36;;;;;;;19.52;11.88;;;8.20;62.60;;;;;;4947802;28;20189;-89
2022/01/31 13:02:10;;;;;;;22.60;12.85;;;8.20;62.60;;;;;;4955884;28;20030;-89
2022/01/31 13:04:38;;;;;;;22.67;12.05;;;8.20;63.20;;;;;;4971651;28;20525;-88
2022/01/31 13:07:08;;;;;;;22.95;12.98;;;8.20;62.60;;;;;;4954288;28;20545;-87
2022/01/31 13:09:38;;;;;;;21.17;12.63;;;8.20;62.60;;;;;;4955703;28;20034;-83
2022/01/31 13:12:10;;;;;;;22.33;11.57;;;8.20;62.70;;;;;;4957198;28;20038;-82
2022/01/31 13:14:46;;;;;;;21.50;12.35;;;8.20;62.70;;;;;;4966290;28;20043;-89
2022/01/31 13:17:17;;;;;;;;;;;8.20;62.80;;;;;;4941441;28;20097;-84
2022/01/31 13:19:49;;;;;;;21.02;12.15;;;8.20;62.80;;;;;;4967250;28;19914;-85
2022/01/31 13:22:23;;;;;;;20.70;11.55;;;8.30;63.00;;;;;;4972037;28;20477;-86
2022/01/31 13:24:53;;;;;;;19.13;11.00;;;8.20;62.90;;;;;;4989435;28;20129;-86
2022/01/31 13:27:28;;;;;;;20.83;11.82;;;8.20;62.90;;;;;;4972938;28;20111;-84
2022/01/31 13:29:55;;;;;;;21.85;11.23;;;8.30;63.00;;;;;;4953822;28;20061;-85
2022/01/31 13:32:29;;;;;;;18.92;11.65;;;8.30;63.00;;;;;;4957516;28;20117;-87
2022/01/31 13:34:58;;;;;;;19.40;10.82;;;8.20;62.80;;;;;;4973168;28;20516;-87
2022/01/31 13:37:39;;;;;;;21.60;12.00;;;8.30;62.90;;;;;;4978249;28;20043;-85
2022/01/31 13:40:10;;;;;;;20.17;12.02;;;8.20;62.80;;;;;;4952914;28;20185;-85
2022/01/31 13:42:41;;;;;;;16.33;10.70;;;8.20;62.90;;;;;;4954532;28;20125;-84
2022/01/31 13:45:19;;;;;;;20.67;12.07;;;8.20;62.90;;;;;;4954841;28;20034;-86
2022/01/31 13:50:16;;;;;;;16.92;11.07;;;8.30;63.00;;;;;;4956944;28;20043;-84